Time;durP1;ratioP1;P1;durP2;ratioP2;P2;SDS_P1;SDS_P2;PMS_P1;PMS_P2;Temp;Humidity;BMP_temperature;BMP_pressure;BME280_temperature;BME280_humidity;BME280_pressure;Samples;Min_cycle;Max_cycle;Signal;HPM_P1;HPM_P2
2023/03/14 00:00:32;;;;;;;;;0.75;0.75;;;;;12.25;67.62;98791.63;4749134;29;45376;-57
2023/03/14 00:02:57;;;;;;;;;1.00;1.00;;;;;12.24;68.02;98781.72;4749127;29;45454;-58
2023/03/14 00:05:23;;;;;;;;;1.00;1.00;;;;;12.22;68.68;98775.66;4748107;29;45483;-56
2023/03/14 00:07:48;;;;;;;;;1.50;1.00;;;;;12.23;68.50;98771.84;4740933;29;46978;-58
2023/03/14 00:10:14;;;;;;;;;2.25;1.00;;;;;12.01;68.83;98742.56;4749319;29;45351;-56
2023/03/14 00:12:41;;;;;;;;;1.50;1.50;;;;;12.16;68.88;98772.06;4747965;29;45804;-56
2023/03/14 00:15:07;;;;;;;;;0.80;0.80;;;;;12.13;69.11;98774.53;4749721;29;45621;-58
2023/03/14 00:17:33;;;;;;;;;1.00;0.20;;;;;12.13;69.16;98782.78;4747584;29;46562;-61
2023/03/14 00:20:04;;;;;;;;;3.20;0.60;;;;;12.05;69.35;98770.38;4749462;29;45429;-61
2023/03/14 00:22:31;;;;;;;;;3.00;0.20;;;;;12.14;69.21;98785.28;4747867;29;45424;-62
2023/03/14 00:24:56;;;;;;;;;0.40;0.40;;;;;12.15;69.28;98766.84;4746592;29;45654;-59
2023/03/14 00:27:22;;;;;;;;;0.50;0.50;;;;;12.17;69.35;98781.97;4724342;29;45857;-60
2023/03/14 00:29:47;;;;;;;;;0.25;0.00;;;;;12.17;69.25;98778.41;4761341;29;45421;-62
2023/03/14 00:32:13;;;;;;;;;1.00;0.00;;;;;12.18;69.34;98780.88;4766044;29;45816;-62
2023/03/14 00:34:39;;;;;;;;;0.50;0.00;;;;;12.19;69.33;98765.22;4764579;29;45638;-60
2023/03/14 00:37:05;;;;;;;;;0.00;0.00;;;;;12.23;69.56;98760.84;4766367;29;45983;-61
2023/03/14 00:39:30;;;;;;;;;3.00;0.50;;;;;12.25;69.15;98764.13;4755374;29;45431;-61
2023/03/14 00:41:56;;;;;;;;;0.00;0.00;;;;;12.25;69.21;98761.38;4750889;29;45257;-61
2023/03/14 00:44:21;;;;;;;;;1.75;0.75;;;;;12.25;69.52;98752.28;4750829;29;45321;-60
2023/03/14 00:46:47;;;;;;;;;0.00;0.00;;;;;12.09;69.32;98716.50;4751005;29;45627;-61
2023/03/14 00:49:12;;;;;;;;;0.00;0.00;;;;;12.25;69.34;98750.38;4750634;29;45323;-60
2023/03/14 00:51:38;;;;;;;;;1.00;0.00;;;;;12.22;69.89;98741.84;4750989;29;45412;-61
2023/03/14 00:54:03;;;;;;;;;2.50;0.75;;;;;12.18;70.21;98752.56;4751011;29;45262;-61
2023/03/14 00:56:29;;;;;;;;;1.00;1.00;;;;;11.99;70.00;98739.28;4749178;29;47431;-61
2023/03/14 00:58:55;;;;;;;;;3.00;2.00;;;;;12.11;70.45;98752.81;4749265;29;45539;-61
2023/03/14 01:01:21;;;;;;;;;2.40;0.20;;;;;12.02;70.63;98743.41;4749324;29;45537;-61
2023/03/14 01:03:46;;;;;;;;;1.00;1.00;;;;;11.92;70.70;98728.53;4749881;29;45449;-63
2023/03/14 01:06:13;;;;;;;;;1.25;1.25;;;;;12.17;70.86;98759.16;4734587;29;48296;-62
2023/03/14 01:08:38;;;;;;;;;3.00;1.20;;;;;11.60;70.48;98654.50;4750530;29;45400;-61
2023/03/14 01:11:08;;;;;;;;;1.25;1.25;;;;;12.11;70.47;98743.75;4749339;29;45506;-61
2023/03/14 01:13:34;;;;;;;;;2.00;1.80;;;;;12.16;70.46;98743.75;4750434;29;45364;-61
2023/03/14 01:16:04;;;;;;;;;2.00;2.00;;;;;12.14;70.60;98762.44;4749346;29;47382;-61
2023/03/14 01:18:30;;;;;;;;;1.20;0.60;;;;;12.14;70.60;98759.69;4750454;29;45412;-60
2023/03/14 01:20:56;;;;;;;;;1.20;0.00;;;;;12.13;70.49;98744.28;4750965;29;45394;-60
2023/03/14 01:23:21;;;;;;;;;3.00;2.00;;;;;12.17;70.52;98751.72;4750595;29;45263;-60
2023/03/14 01:25:47;;;;;;;;;0.00;0.00;;;;;12.17;70.33;98748.97;4750599;29;45618;-61
2023/03/14 01:28:12;;;;;;;;;1.25;1.00;;;;;12.22;70.10;98769.34;4750681;29;45285;-60
2023/03/14 01:30:38;;;;;;;;;2.00;1.00;;;;;12.19;70.15;98751.47;4750203;29;45396;-60
2023/03/14 01:33:03;;;;;;;;;0.75;0.75;;;;;12.16;70.20;98752.00;4750341;29;45603;-60
2023/03/14 01:35:29;;;;;;;;;4.00;2.00;;;;;12.10;70.65;98745.66;4738277;29;45571;-61
2023/03/14 01:37:54;;;;;;;;;1.50;1.50;;;;;12.04;71.08;98736.59;4749319;29;45326;-62
2023/03/14 01:40:20;;;;;;;;;3.75;1.00;;;;;12.15;71.14;98753.09;4752646;29;45385;-60
2023/03/14 01:42:47;;;;;;;;;1.00;1.00;;;;;11.91;71.03;98704.06;4753708;29;45338;-61
2023/03/14 01:45:50;;;;;;;;;1.40;0.80;;;;;12.21;71.30;98741.00;4737327;29;46672;-61
2023/03/14 01:48:15;;;;;;;;;3.00;1.20;;;;;12.14;71.01;98733.03;4753700;29;45492;-61
2023/03/14 01:50:41;;;;;;;;;2.00;2.00;;;;;12.19;71.40;98738.56;4751768;29;45339;-62
2023/03/14 01:53:06;;;;;;;;;2.00;1.00;;;;;12.17;71.76;98739.91;4752353;29;45510;-61
2023/03/14 01:55:32;;;;;;;;;0.00;0.00;;;;;12.05;72.04;98738.22;4752154;29;46218;-61
2023/03/14 01:58:00;;;;;;;;;1.75;0.25;;;;;12.17;71.91;98753.66;4753684;29;45430;-62
2023/03/14 02:00:26;;;;;;;;;0.00;0.00;;;;;12.11;72.17;98755.56;4722980;29;45748;-61
2023/03/14 02:02:54;;;;;;;;;1.00;0.00;;;;;12.07;72.24;98757.22;4753485;29;45448;-61
2023/03/14 02:05:23;;;;;;;;;1.00;0.00;;;;;12.09;72.23;98759.69;4751801;29;45798;-61
2023/03/14 02:07:55;;;;;;;;;0.00;0.00;;;;;12.11;72.31;98757.50;4753125;29;45305;-61
2023/03/14 02:10:22;;;;;;;;;0.00;0.00;;;;;12.10;72.12;98761.34;4753630;29;45561;-62
2023/03/14 02:12:48;;;;;;;;;0.00;0.00;;;;;12.12;72.44;98764.66;4752375;29;45371;-60
2023/03/14 02:15:14;;;;;;;;;1.00;1.00;;;;;12.06;72.50;98766.53;4736633;29;46443;-61
2023/03/14 02:17:40;;;;;;;;;1.25;1.25;;;;;11.97;72.51;98752.47;4753098;29;45438;-61
2023/03/14 02:20:40;;;;;;;;;0.00;0.00;;;;;12.10;72.70;98764.09;4722339;29;45330;-62
2023/03/14 02:23:06;;;;;;;;;1.60;1.00;;;;;12.12;72.86;98770.16;4753287;29;45170;-60
2023/03/14 02:25:48;;;;;;;;;0.00;0.00;;;;;12.09;73.24;98770.66;4752649;29;45584;-61
2023/03/14 02:28:14;;;;;;;;;1.00;0.00;;;;;12.09;73.28;98766.00;4751232;29;45387;-60
2023/03/14 02:30:39;;;;;;;;;0.00;0.00;;;;;12.10;73.20;98755.84;4736721;29;45366;-60
2023/03/14 02:33:14;;;;;;;;;0.25;0.00;;;;;12.06;73.11;98750.88;4751412;29;45356;-62
2023/03/14 02:35:47;;;;;;;;;1.00;0.00;;;;;12.00;73.26;98737.38;4751608;29;46336;-62
2023/03/14 02:38:38;;;;;;;;;1.00;0.00;;;;;12.13;73.15;98752.53;4737032;29;45230;-61
2023/03/14 02:41:03;;;;;;;;;0.00;0.00;;;;;12.06;72.98;98739.88;4738065;29;45611;-61
2023/03/14 02:43:29;;;;;;;;;2.00;0.00;;;;;12.06;72.95;98742.63;4752686;29;45480;-61
2023/03/14 02:45:55;;;;;;;;;0.00;0.00;;;;;12.10;73.17;98747.59;4752627;29;45504;-60
2023/03/14 02:48:27;;;;;;;;;0.00;0.00;;;;;12.05;73.54;98748.38;4752476;29;45419;-61
2023/03/14 02:50:55;;;;;;;;;0.80;0.00;;;;;12.03;74.15;98718.44;4750555;29;45266;-60
2023/03/14 02:53:23;;;;;;;;;0.00;0.00;;;;;12.04;74.47;98725.59;4751228;29;45365;-62
2023/03/14 02:55:49;;;;;;;;;0.80;0.00;;;;;11.90;74.34;98705.19;4736041;29;48397;-61
2023/03/14 02:58:14;;;;;;;;;1.50;0.00;;;;;12.10;74.79;98737.41;4751036;29;45165;-60
2023/03/14 03:00:40;;;;;;;;;1.00;1.00;;;;;12.14;74.59;98741.28;4752529;29;45293;-61
2023/03/14 03:03:05;;;;;;;;;0.00;0.00;;;;;12.12;75.04;98742.66;4730193;29;45935;-60
2023/03/14 03:05:31;;;;;;;;;0.00;0.00;;;;;12.14;74.99;98737.69;4769801;29;46379;-59
2023/03/14 03:07:57;;;;;;;;;0.00;0.00;;;;;12.13;74.88;98755.28;4770032;29;45389;-60
2023/03/14 03:10:22;;;;;;;;;0.00;0.00;;;;;12.13;74.79;98744.28;4770196;29;45362;-60
2023/03/14 03:12:48;;;;;;;;;0.00;0.00;;;;;12.11;74.80;98749.25;4770374;29;45503;-60
2023/03/14 03:15:14;;;;;;;;;0.00;0.00;;;;;12.01;75.10;98736.28;4769700;29;46322;-60
2023/03/14 03:17:39;;;;;;;;;0.00;0.00;;;;;12.06;75.61;98763.78;4770020;29;45393;-61
2023/03/14 03:20:08;;;;;;;;;0.00;0.00;;;;;12.09;75.65;98751.44;4768787;29;45347;-61
2023/03/14 03:22:34;;;;;;;;;0.00;0.00;;;;;12.05;75.12;98753.88;4769959;29;45472;-60
2023/03/14 03:24:59;;;;;;;;;1.00;0.00;;;;;12.10;75.55;98758.59;4769779;29;45927;-60
2023/03/14 03:27:24;;;;;;;;;1.00;0.00;;;;;12.11;75.47;98763.81;4769677;29;45378;-61
2023/03/14 03:29:50;;;;;;;;;0.00;0.00;;;;;11.80;75.65;98712.28;4769712;29;45455;-60
2023/03/14 03:32:15;;;;;;;;;0.00;0.00;;;;;11.97;75.88;98736.00;4770319;29;45304;-61
2023/03/14 03:34:41;;;;;;;;;0.00;0.00;;;;;12.08;75.74;98758.88;4769554;29;46280;-61
2023/03/14 03:37:06;;;;;;;;;0.00;0.00;;;;;12.01;76.10;98750.81;4769738;29;45430;-60
2023/03/14 03:39:32;;;;;;;;;1.00;0.00;;;;;12.08;76.24;98767.13;4768592;29;45456;-61
2023/03/14 03:41:57;;;;;;;;;0.00;0.00;;;;;12.07;76.18;98776.47;4768987;29;45617;-61
2023/03/14 03:44:23;;;;;;;;;1.00;0.00;;;;;11.92;76.39;98753.28;4769922;29;46363;-61
2023/03/14 03:46:48;;;;;;;;;0.00;0.00;;;;;12.02;76.18;98762.66;4768139;29;45470;-61
2023/03/14 03:49:14;;;;;;;;;0.00;0.00;;;;;12.06;76.19;98783.88;4768629;29;45427;-61
2023/03/14 03:51:40;;;;;;;;;0.00;0.00;;;;;12.04;76.42;98771.50;4765333;29;45478;-61
2023/03/14 03:54:05;;;;;;;;;1.00;0.00;;;;;11.85;75.86;98744.44;4749983;29;46835;-61
2023/03/14 03:56:31;;;;;;;;;1.00;1.00;;;;;12.08;75.98;98780.88;4750065;29;45426;-61
2023/03/14 03:58:56;;;;;;;;;0.00;0.00;;;;;11.58;75.90;98703.41;4751577;29;45331;-61
2023/03/14 04:01:22;;;;;;;;;0.75;0.75;;;;;12.09;75.78;98777.00;4750671;29;45588;-60
2023/03/14 04:03:47;;;;;;;;;0.00;0.00;;;;;12.05;75.71;98776.72;4751349;29;45497;-61
2023/03/14 04:06:13;;;;;;;;;0.00;0.00;;;;;11.96;76.02;98775.56;4749934;29;45259;-60
2023/03/14 04:08:40;;;;;;;;;0.00;0.00;;;;;12.06;76.07;98792.13;4751782;29;45283;-60
2023/03/14 04:11:05;;;;;;;;;0.00;0.00;;;;;12.05;75.92;98798.72;4750225;29;45303;-60
2023/03/14 04:13:31;;;;;;;;;0.00;0.00;;;;;12.02;75.36;98792.91;4735234;29;46432;-61
2023/03/14 04:15:57;;;;;;;;;0.00;0.00;;;;;12.07;75.86;98798.47;4750991;29;45442;-61
2023/03/14 04:18:24;;;;;;;;;0.00;0.00;;;;;12.08;75.75;98802.84;4751667;29;45324;-61
2023/03/14 04:20:56;;;;;;;;;0.80;0.00;;;;;11.84;77.35;98777.72;4749891;29;45343;-62
2023/03/14 04:23:25;;;;;;;;;0.00;0.00;;;;;12.01;76.76;98808.56;4751315;29;45998;-61
2023/03/14 04:25:51;;;;;;;;;0.40;0.00;;;;;12.02;77.27;98810.22;4750838;29;45756;-61
2023/03/14 04:28:17;;;;;;;;;0.00;0.00;;;;;11.98;77.41;98813.78;4735707;29;45439;-61
2023/03/14 04:30:42;;;;;;;;;1.00;0.00;;;;;11.90;78.50;98832.44;4764328;29;45918;-61
2023/03/14 04:33:07;;;;;;;;;0.00;0.00;;;;;11.76;79.53;98823.88;4765750;29;46577;-61
2023/03/14 04:35:33;;;;;;;;;0.00;0.00;;;;;11.80;79.18;98835.97;4767683;29;45220;-61
2023/03/14 04:37:59;;;;;;;;;0.00;0.00;;;;;11.61;79.33;98797.13;4767673;29;45236;-60
2023/03/14 04:40:25;;;;;;;;;0.00;0.00;;;;;11.73;80.06;98838.13;4769482;29;45907;-61
2023/03/14 04:42:50;;;;;;;;;0.00;0.00;;;;;11.76;79.31;98848.59;4768530;29;45386;-62
2023/03/14 04:45:16;;;;;;;;;0.00;0.00;;;;;11.84;79.48;98852.75;4768977;29;45260;-61
2023/03/14 04:47:41;;;;;;;;;0.00;0.00;;;;;11.46;78.80;98814.34;4767673;29;45465;-61
2023/03/14 04:50:08;;;;;;;;;1.00;0.00;;;;;11.70;79.65;98865.31;4768983;29;45321;-61
2023/03/14 04:52:33;;;;;;;;;0.00;0.00;;;;;11.37;79.36;98870.88;4756638;29;45912;-61
2023/03/14 04:54:59;;;;;;;;;0.00;0.00;;;;;11.45;79.06;98903.34;4749058;29;45459;-61
2023/03/14 04:57:24;;;;;;;;;0.00;0.00;;;;;11.63;77.30;98934.25;4749529;29;45412;-61
2023/03/14 04:59:50;;;;;;;;;0.00;0.00;;;;;11.68;76.51;98970.00;4751095;29;45552;-61
2023/03/14 05:02:15;;;;;;;;;0.00;0.00;;;;;11.47;75.44;98925.06;4750476;29;45753;-61
2023/03/14 05:04:41;;;;;;;;;0.00;0.00;;;;;11.50;74.47;98969.31;4751015;29;45539;-61
2023/03/14 05:07:06;;;;;;;;;0.00;0.00;;;;;11.38;73.37;98968.66;4748935;29;45373;-61
2023/03/14 05:09:32;;;;;;;;;0.50;0.50;;;;;11.44;71.17;98986.84;4751016;29;45526;-61
2023/03/14 05:11:58;;;;;;;;;2.00;0.75;;;;;11.15;71.13;98962.41;4750699;29;45387;-61
2023/03/14 05:14:23;;;;;;;;;0.00;0.00;;;;;10.80;70.02;98936.25;4751814;29;45395;-61
2023/03/14 05:16:49;;;;;;;;;3.00;1.00;;;;;11.22;69.06;99028.91;4756981;29;45442;-61
2023/03/14 05:19:14;;;;;;;;;0.25;0.25;;;;;11.14;68.92;99028.56;4756485;29;45551;-61
2023/03/14 05:21:40;;;;;;;;;2.25;0.00;;;;;11.10;67.88;99033.75;4756529;29;46116;-60
2023/03/14 05:24:05;;;;;;;;;1.00;1.00;;;;;11.10;68.25;99044.72;4756261;29;45326;-62
2023/03/14 05:26:31;;;;;;;;;0.00;0.00;;;;;11.06;66.87;99057.31;4756436;29;45230;-61
2023/03/14 05:28:56;;;;;;;;;2.00;1.25;;;;;10.98;66.34;99066.81;4755521;29;45500;-61
2023/03/14 05:31:22;;;;;;;;;3.00;2.00;;;;;10.93;67.25;99073.06;4756193;29;45538;-61
2023/03/14 05:33:47;;;;;;;;;0.50;0.50;;;;;10.89;66.68;99095.81;4752503;29;45683;-62
2023/03/14 05:36:13;;;;;;;;;2.00;2.00;;;;;10.63;66.46;99063.38;4746322;29;45471;-62
2023/03/14 05:38:38;;;;;;;;;1.25;1.00;;;;;10.80;66.18;99098.16;4775023;29;45452;-61
2023/03/14 05:41:04;;;;;;;;;7.00;3.00;;;;;10.81;66.73;99102.56;4774688;29;46149;-61
2023/03/14 05:43:29;;;;;;;;;1.25;1.25;;;;;10.80;66.47;99115.47;4774375;29;45358;-61
2023/03/14 05:45:55;;;;;;;;;3.00;2.00;;;;;10.83;66.12;99136.91;4774452;29;45320;-61
2023/03/14 05:48:21;;;;;;;;;1.25;1.00;;;;;10.75;65.54;99134.59;4774427;29;45317;-61
2023/03/14 05:50:47;;;;;;;;;2.00;2.00;;;;;10.46;65.58;99110.00;4772589;29;47625;-60
2023/03/14 05:53:12;;;;;;;;;2.75;2.25;;;;;10.74;64.75;99170.50;4758104;29;45418;-60
2023/03/14 05:55:39;;;;;;;;;3.50;2.25;;;;;10.70;64.46;99162.81;4756026;29;45373;-60
2023/03/14 05:58:04;;;;;;;;;1.80;1.80;;;;;10.57;64.37;99163.16;4754815;29;45382;-61
2023/03/14 06:00:30;;;;;;;;;2.00;2.00;;;;;10.50;63.56;99155.06;4755912;29;46407;-61
2023/03/14 06:02:55;;;;;;;;;2.25;1.25;;;;;10.74;63.58;99203.44;4754739;29;45414;-60
2023/03/14 06:05:21;;;;;;;;;2.25;0.25;;;;;10.74;63.05;99209.78;4755057;29;45453;-60
2023/03/14 06:07:46;;;;;;;;;3.00;2.00;;;;;10.63;61.35;99228.00;4756131;29;45388;-61
2023/03/14 06:10:12;;;;;;;;;2.75;2.75;;;;;10.56;62.22;99228.16;4756278;29;46688;-60
2023/03/14 06:12:37;;;;;;;;;2.00;2.00;;;;;10.51;61.45;99240.97;4755901;29;45499;-60
2023/03/14 06:15:03;;;;;;;;;1.25;1.25;;;;;10.47;60.89;99264.47;4755947;29;46404;-61
2023/03/14 06:17:28;;;;;;;;;2.00;2.00;;;;;10.39;59.99;99263.75;4755881;29;45411;-62
2023/03/14 06:19:54;;;;;;;;;3.00;3.00;;;;;10.43;61.00;99267.72;4755515;29;45560;-62
2023/03/14 06:22:19;;;;;;;;;1.25;1.25;;;;;10.43;59.64;99275.09;4754483;29;45409;-61
2023/03/14 06:24:45;;;;;;;;;3.25;2.00;;;;;10.36;60.18;99283.44;4755528;29;45508;-61
2023/03/14 06:27:10;;;;;;;;;2.75;2.00;;;;;10.39;60.05;99302.16;4752070;29;45368;-61
2023/03/14 06:29:36;;;;;;;;;1.50;1.50;;;;;10.41;60.30;99321.94;4736532;29;48355;-62
2023/03/14 06:32:01;;;;;;;;;3.50;3.00;;;;;10.35;60.11;99327.59;4752709;29;45424;-61
2023/03/14 06:34:27;;;;;;;;;2.25;2.25;;;;;10.30;58.74;99331.06;4752858;29;45392;-61
2023/03/14 06:36:52;;;;;;;;;7.50;3.00;;;;;10.26;59.37;99336.19;4752422;29;45454;-62
2023/03/14 06:39:18;;;;;;;;;2.00;2.00;;;;;10.26;59.43;99351.81;4752707;29;45786;-60
2023/03/14 06:41:43;;;;;;;;;3.00;3.00;;;;;10.01;59.05;99333.78;4751161;29;45450;-60
2023/03/14 06:44:09;;;;;;;;;2.00;2.00;;;;;10.20;59.34;99370.09;4752734;29;45360;-61
2023/03/14 06:46:34;;;;;;;;;3.75;3.75;;;;;10.17;59.38;99387.00;4752730;29;45594;-62
2023/03/14 06:48:59;;;;;;;;;4.50;2.25;;;;;10.19;59.69;99386.78;4752555;29;46466;-61
2023/03/14 06:51:25;;;;;;;;;3.00;1.00;;;;;10.22;59.74;99397.25;4752388;29;45324;-61
2023/03/14 06:53:50;;;;;;;;;4.25;2.25;;;;;10.24;59.86;99417.06;4752288;29;45349;-61
2023/03/14 06:56:16;;;;;;;;;5.50;2.75;;;;;10.12;58.86;99406.09;4752568;29;45191;-62
2023/03/14 06:58:41;;;;;;;;;3.75;2.00;;;;;10.08;58.11;99415.91;4752140;29;45888;-61
2023/03/14 07:01:17;;;;;;;;;3.50;2.00;;;;;9.98;58.47;99409.09;4752202;29;45385;-61
2023/03/14 07:03:42;;;;;;;;;5.20;4.00;;;;;10.15;58.84;99447.56;4736954;29;45513;-61
2023/03/14 07:06:08;;;;;;;;;0.00;0.00;;;;;10.18;58.91;99446.25;4752555;29;45536;-61
2023/03/14 07:08:33;;;;;;;;;5.25;2.00;;;;;10.13;57.40;99457.94;4750787;29;48642;-61
2023/03/14 07:10:59;;;;;;;;;3.00;2.00;;;;;10.09;57.85;99466.91;4752090;29;45392;-60
2023/03/14 07:13:24;;;;;;;;;2.25;2.00;;;;;10.12;57.95;99463.66;4750482;29;45456;-61
2023/03/14 07:15:50;;;;;;;;;1.00;1.00;;;;;10.08;57.43;99474.28;4752204;29;45351;-60
2023/03/14 07:18:15;;;;;;;;;5.00;2.00;;;;;10.07;57.83;99480.84;4751708;29;46212;-61
2023/03/14 07:20:41;;;;;;;;;3.25;1.00;;;;;10.05;56.43;99477.50;4750843;29;45466;-61
2023/03/14 07:23:06;;;;;;;;;5.75;1.50;;;;;10.00;56.86;99491.09;4750425;29;45458;-60
2023/03/14 07:25:32;;;;;;;;;1.50;1.50;;;;;9.99;56.87;99501.22;4752239;29;45547;-62
2023/03/14 07:27:57;;;;;;;;;3.00;3.00;;;;;9.88;57.07;99494.66;4721561;29;45500;-62
2023/03/14 07:30:23;;;;;;;;;3.25;1.75;;;;;10.02;56.45;99521.84;4749669;29;45505;-62
2023/03/14 07:32:48;;;;;;;;;6.00;2.75;;;;;9.99;55.94;99528.63;4751893;29;45633;-61
2023/03/14 07:35:14;;;;;;;;;2.75;2.00;;;;;9.92;56.75;99521.63;4751979;29;45322;-61
2023/03/14 07:37:39;;;;;;;;;1.50;1.50;;;;;9.92;55.78;99540.81;4749819;29;47641;-62
2023/03/14 07:40:07;;;;;;;;;0.50;0.50;;;;;9.92;55.77;99546.28;4750017;29;46192;-61
2023/03/14 07:42:32;;;;;;;;;3.00;2.40;;;;;9.95;56.17;99554.00;4751768;29;45929;-61
2023/03/14 07:44:57;;;;;;;;;2.75;2.75;;;;;9.75;55.58;99539.59;4750520;29;45350;-61
2023/03/14 07:47:23;;;;;;;;;2.25;2.25;;;;;9.52;55.39;99515.72;4751243;29;46697;-61
2023/03/14 07:49:48;;;;;;;;;5.00;2.00;;;;;9.87;55.29;99591.66;4751771;29;45302;-60
2023/03/14 07:52:14;;;;;;;;;2.00;2.00;;;;;9.70;56.06;99552.31;4751445;29;45323;-60
2023/03/14 07:54:40;;;;;;;;;2.00;1.00;;;;;9.96;56.15;99583.94;4751977;29;45316;-65
2023/03/14 07:57:05;;;;;;;;;3.00;1.00;;;;;9.97;54.71;99596.56;4749605;29;46134;-60
2023/03/14 07:59:31;;;;;;;;;3.00;2.00;;;;;10.03;55.10;99597.50;4749629;29;45473;-61
2023/03/14 08:01:56;;;;;;;;;1.00;1.00;;;;;10.14;55.41;99607.66;4751396;29;45286;-61
2023/03/14 08:04:22;;;;;;;;;0.75;0.75;;;;;10.23;54.68;99632.84;4751904;29;45308;-61
2023/03/14 08:06:47;;;;;;;;;1.50;1.50;;;;;10.29;54.31;99614.59;4749872;29;48379;-60
2023/03/14 08:09:13;;;;;;;;;2.00;2.00;;;;;10.28;54.02;99618.41;4749984;29;45937;-60
2023/03/14 08:11:38;;;;;;;;;1.50;1.00;;;;;10.34;54.79;99633.09;4750564;29;45369;-58
2023/03/14 08:14:03;;;;;;;;;1.25;1.00;;;;;9.94;54.34;99577.88;4735171;29;45351;-56
2023/03/14 08:16:29;;;;;;;;;2.50;1.00;;;;;10.41;55.03;99653.03;4751269;29;45941;-58
2023/03/14 08:18:55;;;;;;;;;4.50;2.25;;;;;10.43;54.11;99632.53;4751307;29;45364;-57
2023/03/14 08:21:21;;;;;;;;;4.60;1.80;;;;;10.46;54.27;99658.63;4750056;29;45324;-57
2023/03/14 08:23:46;;;;;;;;;3.75;1.50;;;;;10.56;54.63;99669.88;4751483;29;45658;-58
2023/03/14 08:26:12;;;;;;;;;1.00;1.00;;;;;10.42;54.63;99636.34;4751051;29;45417;-57
2023/03/14 08:28:37;;;;;;;;;1.75;1.25;;;;;10.63;53.98;99667.00;4751075;29;45399;-58
2023/03/14 08:31:03;;;;;;;;;2.00;2.00;;;;;10.68;54.05;99672.59;4751342;29;45326;-57
2023/03/14 08:33:29;;;;;;;;;2.00;2.00;;;;;10.67;54.36;99662.69;4735035;29;46194;-59
2023/03/14 08:35:55;;;;;;;;;3.50;2.00;;;;;10.66;54.67;99674.75;4750220;29;46316;-56
2023/03/14 08:38:20;;;;;;;;;2.80;1.60;;;;;9.95;54.75;99574.06;4751071;29;45348;-58
2023/03/14 08:40:46;;;;;;;;;3.25;1.75;;;;;10.40;54.71;99657.66;4750897;29;45314;-58
2023/03/14 08:43:11;;;;;;;;;2.50;1.25;;;;;10.67;54.59;99695.63;4734866;29;45678;-59
2023/03/14 08:45:37;;;;;;;;;2.75;2.75;;;;;10.70;54.27;99694.31;4751095;29;45565;-57
2023/03/14 08:48:03;;;;;;;;;2.00;1.00;;;;;10.60;55.12;99694.91;4721060;29;45357;-59
2023/03/14 08:50:28;;;;;;;;;2.50;1.75;;;;;10.64;55.14;99704.34;4750760;29;45274;-57
2023/03/14 08:52:54;;;;;;;;;4.50;3.00;;;;;10.69;55.10;99703.63;4751113;29;45587;-59
2023/03/14 08:55:19;;;;;;;;;2.25;2.25;;;;;10.63;55.09;99712.81;4750743;29;46229;-60
2023/03/14 08:57:45;;;;;;;;;3.00;3.00;;;;;10.56;54.84;99711.03;4749102;29;45335;-61
2023/03/14 09:00:14;;;;;;;;;5.80;3.80;;;;;10.70;54.43;99706.16;4749572;29;45361;-58
2023/03/14 09:02:41;;;;;;;;;7.40;3.80;;;;;10.73;54.47;99723.19;4734025;29;45278;-59
2023/03/14 09:05:07;;;;;;;;;4.20;2.80;;;;;10.63;54.76;99738.38;4744632;29;45583;-58
2023/03/14 09:07:32;;;;;;;;;2.80;2.20;;;;;10.69;53.97;99734.63;4747390;29;45422;-59
2023/03/14 09:09:58;;;;;;;;;4.25;2.00;;;;;10.69;54.32;99750.28;4741104;29;45443;-59
2023/03/14 09:12:24;;;;;;;;;3.25;1.00;;;;;10.78;54.92;99742.53;4736062;29;45275;-58
2023/03/14 09:14:49;;;;;;;;;5.50;2.75;;;;;10.73;55.56;99737.75;4730884;29;45339;-60
2023/03/14 09:17:15;;;;;;;;;0.75;0.75;;;;;10.72;54.57;99741.56;4734439;29;45330;-59
2023/03/14 09:19:40;;;;;;;;;4.00;2.50;;;;;10.76;55.21;99750.16;4745401;29;45455;-59
2023/03/14 09:22:06;;;;;;;;;1.00;1.00;;;;;10.70;55.25;99744.56;4738652;29;45321;-59
2023/03/14 09:24:32;;;;;;;;;2.00;1.50;;;;;10.70;55.13;99766.53;4731359;29;45836;-58
2023/03/14 09:26:57;;;;;;;;;2.50;2.00;;;;;10.71;54.50;99773.69;4729931;29;45513;-59
2023/03/14 09:29:24;;;;;;;;;3.00;1.00;;;;;10.54;54.29;99769.94;4736267;29;45448;-59
2023/03/14 09:31:49;;;;;;;;;3.80;3.80;;;;;10.53;54.26;99779.25;4748632;29;45661;-60
2023/03/14 09:34:16;;;;;;;;;9.00;9.00;;;;;10.59;54.93;99800.25;4731413;30;46342;-60
2023/03/14 09:36:44;;;;;;;;;3.20;2.40;;;;;10.60;55.18;99801.09;4731722;29;45345;-58
2023/03/14 09:39:10;;;;;;;;;0.00;0.00;;;;;10.54;58.39;99844.88;4731477;30;45706;-60
2023/03/14 09:41:38;;;;;;;;;1.20;0.00;;;;;10.24;61.24;99856.63;4742701;29;45634;-58
2023/03/14 09:44:24;;;;;;;;;1.80;1.80;;;;;10.01;64.10;99860.09;4737577;29;46211;-60
2023/03/14 09:46:51;;;;;;;;;1.20;0.20;;;;;9.86;63.94;99853.13;4729454;29;45416;-61
2023/03/14 09:49:33;;;;;;;;;1.00;1.00;;;;;9.97;64.68;99845.19;4732325;29;45425;-58
2023/03/14 09:52:04;;;;;;;;;0.80;0.80;;;;;10.11;64.94;99854.06;4737209;29;45462;-57
2023/03/14 09:54:37;;;;;;;;;1.40;1.40;;;;;10.23;65.13;99865.09;4734759;29;46460;-59
2023/03/14 09:57:04;;;;;;;;;2.60;2.00;;;;;10.39;64.73;99863.63;4740673;29;45503;-60
2023/03/14 09:59:29;;;;;;;;;0.20;0.20;;;;;10.68;62.99;99883.91;4750879;29;45792;-59
2023/03/14 10:01:58;;;;;;;;;3.00;2.75;;;;;10.81;63.04;99879.28;4739534;29;45489;-60
2023/03/14 10:04:23;;;;;;;;;2.00;1.00;;;;;10.70;63.22;99924.84;4747413;29;45589;-59
2023/03/14 10:06:49;;;;;;;;;1.00;1.00;;;;;10.49;64.62;99905.09;4765887;29;45777;-60
2023/03/14 10:09:25;;;;;;;;;1.25;1.25;;;;;10.53;63.67;99924.66;4730501;29;45705;-62
2023/03/14 10:11:55;;;;;;;;;0.00;0.00;;;;;10.33;62.10;99911.16;4745120;29;45484;-62
2023/03/14 10:14:31;;;;;;;;;0.00;0.00;;;;;10.24;61.49;99947.16;4763441;29;46638;-62
2023/03/14 10:17:04;;;;;;;;;1.00;1.00;;;;;10.10;61.50;99957.44;4752247;29;45719;-62
2023/03/14 10:19:30;;;;;;;;;1.00;0.00;;;;;9.95;63.55;99940.50;4716461;29;45829;-62
2023/03/14 10:21:56;;;;;;;;;3.50;0.50;;;;;9.78;62.53;99932.91;4751988;29;46132;-62
2023/03/14 10:24:26;;;;;;;;;0.20;0.20;;;;;9.95;61.75;99946.00;4757831;29;47561;-62
2023/03/14 10:26:53;;;;;;;;;2.00;0.60;;;;;9.94;60.53;99905.94;4747515;29;45578;-61
2023/03/14 10:29:19;;;;;;;;;3.00;1.00;;;;;10.28;58.41;99940.16;4766702;29;45830;-61
2023/03/14 10:31:52;;;;;;;;;0.75;0.75;;;;;10.51;59.12;99948.75;4761913;29;45444;-60
2023/03/14 10:34:23;;;;;;;;;5.80;2.00;;;;;10.54;59.34;99962.84;4749078;29;45880;-61
2023/03/14 10:36:53;;;;;;;;;0.40;0.20;;;;;10.53;59.18;99941.13;4732340;29;46833;-62
2023/03/14 10:39:32;;;;;;;;;2.00;0.20;;;;;10.96;58.79;99967.56;4748498;29;45450;-61
2023/03/14 10:42:06;;;;;;;;;1.40;0.00;;;;;11.06;57.91;99964.22;4734679;29;45450;-61
2023/03/14 10:44:32;;;;;;;;;3.00;1.00;;;;;11.10;56.83;99959.13;4748559;29;45526;-63
2023/03/14 10:47:02;;;;;;;;;1.25;1.00;;;;;11.30;56.44;99978.03;4747926;29;45964;-61
2023/03/14 10:49:33;;;;;;;;;1.80;1.00;;;;;11.04;56.43;99957.31;4748632;29;45955;-61
2023/03/14 10:52:24;;;;;;;;;1.00;1.00;;;;;11.12;56.24;99948.75;4750361;29;45546;-61
2023/03/14 10:55:01;;;;;;;;;1.00;1.00;;;;;11.32;55.34;100019.84;4748572;29;47747;-59
2023/03/14 10:57:27;;;;;;;;;1.00;1.00;;;;;10.88;56.04;100011.81;4749480;29;45884;-61
2023/03/14 10:59:53;;;;;;;;;0.50;0.50;;;;;10.91;56.37;100026.97;4766370;29;45515;-60
2023/03/14 11:02:58;;;;;;;;;1.00;1.00;;;;;10.90;56.18;100028.91;4766318;29;45627;-61
2023/03/14 11:05:23;;;;;;;;;1.00;1.00;;;;;10.93;54.53;100022.09;4767411;29;45469;-58
2023/03/14 11:07:49;;;;;;;;;2.00;0.25;;;;;10.76;54.40;99997.19;4754035;29;46053;-60
2023/03/14 11:10:27;;;;;;;;;2.50;1.50;;;;;11.00;53.44;100022.84;4732209;29;45555;-62
2023/03/14 11:13:02;;;;;;;;;0.00;0.00;;;;;11.18;53.57;100027.44;4749532;29;45519;-62
2023/03/14 11:15:33;;;;;;;;;1.60;1.60;;;;;11.21;52.74;100010.50;4748675;29;46016;-62
2023/03/14 11:18:25;;;;;;;;;3.80;2.40;;;;;11.41;53.11;100028.59;4734368;29;45579;-61
2023/03/14 11:20:55;;;;;;;;;1.80;1.80;;;;;11.50;52.22;100037.34;4748637;29;45563;-62
2023/03/14 11:23:22;;;;;;;;;2.20;0.60;;;;;11.69;51.90;100031.75;4739566;29;45970;-62
2023/03/14 11:25:54;;;;;;;;;1.00;1.00;;;;;11.64;49.81;99999.50;4748246;29;45475;-59
2023/03/14 11:28:45;;;;;;;;;2.00;1.00;;;;;12.00;49.28;100036.06;4750169;29;45465;-63
2023/03/14 11:31:25;;;;;;;;;1.40;0.00;;;;;12.10;49.24;100029.19;4746583;29;45781;-63
2023/03/14 11:34:28;;;;;;;;;0.40;0.40;;;;;12.21;49.02;100039.31;4733465;29;45724;-62